createdAt,value
2023-03-25T00:01:50.956Z,64.50
2023-03-25T00:04:19.959Z,69.68
2023-03-25T00:06:48.192Z,67.23
2023-03-25T00:09:15.921Z,68.30
2023-03-25T00:11:43.653Z,69.12
2023-03-25T00:14:12.299Z,67.84
2023-03-25T00:16:41.434Z,66.26
2023-03-25T00:19:09.883Z,64.92
2023-03-25T00:21:39.828Z,68.96
2023-03-25T00:24:08.113Z,66.97
2023-03-25T00:26:35.854Z,64.17
2023-03-25T00:29:03.669Z,63.75
2023-03-25T00:31:31.379Z,68.13
2023-03-25T00:34:00.462Z,67.82
2023-03-25T00:36:28.345Z,64.39
2023-03-25T00:38:56.090Z,66.22
2023-03-25T00:41:26.017Z,64.02
2023-03-25T00:43:55.421Z,64.40
2023-03-25T00:46:23.960Z,63.85
2023-03-25T00:48:52.593Z,66.21
2023-03-25T00:51:22.485Z,62.58
2023-03-25T00:53:53.233Z,63.34
2023-03-25T00:56:21.009Z,62.88
2023-03-25T00:58:48.875Z,65.13
2023-03-25T01:01:23.291Z,64.43
2023-03-25T01:03:57.729Z,64.20
2023-03-25T01:06:29.825Z,64.55
2023-03-25T01:08:58.628Z,63.97
2023-03-25T01:11:28.272Z,64.83
2023-03-25T01:13:59.706Z,63.33
2023-03-25T01:16:28.284Z,63.43
2023-03-25T01:18:57.004Z,66.05
2023-03-25T01:21:24.779Z,65.94
2023-03-25T01:23:53.868Z,63.44
2023-03-25T01:26:21.596Z,64.94
2023-03-25T01:28:49.349Z,64.16
2023-03-25T01:31:17.417Z,63.39
2023-03-25T01:33:45.181Z,65.93
2023-03-25T01:36:13.906Z,66.50
2023-03-25T01:38:43.468Z,67.44
2023-03-25T01:41:12.595Z,64.13
2023-03-25T01:43:40.359Z,67.65
2023-03-25T01:46:14.244Z,64.60
2023-03-25T01:48:45.307Z,65.14
2023-03-25T01:51:18.504Z,67.00
2023-03-25T01:53:46.725Z,64.55
2023-03-25T01:56:19.537Z,65.56
2023-03-25T01:58:48.209Z,67.08
2023-03-25T02:01:18.304Z,66.40
2023-03-25T02:03:50.906Z,65.15
2023-03-25T02:06:25.144Z,64.28
2023-03-25T02:08:55.895Z,62.16
2023-03-25T02:11:29.081Z,61.61
2023-03-25T02:13:58.885Z,64.88
2023-03-25T02:16:34.003Z,69.47
2023-03-25T02:19:33.357Z,65.30
2023-03-25T02:22:38.055Z,63.96
2023-03-25T02:25:35.381Z,63.59
2023-03-25T02:28:12.260Z,64.95
2023-03-25T02:30:57.598Z,67.16
2023-03-25T02:33:39.265Z,65.80
2023-03-25T02:36:48.836Z,66.89
2023-03-25T02:39:25.547Z,67.14
2023-03-25T02:42:00.576Z,66.95
2023-03-25T02:44:36.236Z,63.98
2023-03-25T02:47:08.514Z,67.05
2023-03-25T02:49:39.420Z,65.02
2023-03-25T02:52:12.516Z,67.00
2023-03-25T02:54:45.131Z,64.39
2023-03-25T02:57:18.870Z,65.15
2023-03-25T02:59:48.883Z,66.78
2023-03-25T03:02:19.366Z,68.28
2023-03-25T03:04:49.217Z,67.73
2023-03-25T03:07:25.183Z,68.07
2023-03-25T03:10:01.495Z,66.56
2023-03-25T03:12:49.843Z,68.68
2023-03-25T03:15:31.976Z,66.35
2023-03-25T03:18:14.412Z,67.81
2023-03-25T03:20:50.090Z,65.61
2023-03-25T03:23:25.714Z,69.05
2023-03-25T03:26:04.549Z,70.65
2023-03-25T03:28:37.986Z,67.69
2023-03-25T03:31:08.629Z,68.23
2023-03-25T03:33:41.964Z,63.32
2023-03-25T03:36:13.625Z,67.95
2023-03-25T03:38:46.993Z,66.65
2023-03-25T03:41:21.428Z,66.87
2023-03-25T03:43:51.848Z,65.33
2023-03-25T03:46:23.698Z,63.94
2023-03-25T03:48:56.076Z,67.10
2023-03-25T03:51:29.159Z,66.59
2023-03-25T03:54:00.713Z,69.89
2023-03-25T03:56:37.090Z,67.85
2023-03-25T03:59:11.734Z,65.80
2023-03-25T04:01:46.115Z,64.39
2023-03-25T04:04:20.205Z,65.58
2023-03-25T04:06:56.882Z,64.19
2023-03-25T04:09:28.730Z,67.09
2023-03-25T04:12:02.840Z,65.75
2023-03-25T04:14:31.273Z,65.21
2023-03-25T04:16:59.592Z,65.11
2023-03-25T04:19:27.425Z,63.71
2023-03-25T04:21:55.367Z,65.81
2023-03-25T04:24:25.141Z,65.28
2023-03-25T04:26:53.039Z,63.44
2023-03-25T04:29:22.239Z,63.71
2023-03-25T04:31:50.577Z,64.27
2023-03-25T04:34:20.541Z,63.42
2023-03-25T04:36:50.029Z,63.68
2023-03-25T04:39:22.377Z,63.66
2023-03-25T04:41:50.865Z,63.76
2023-03-25T04:44:18.642Z,60.90
2023-03-25T04:46:48.663Z,61.66
2023-03-25T04:49:21.384Z,61.47
2023-03-25T04:51:51.536Z,63.41
2023-03-25T04:54:19.735Z,61.54
2023-03-25T04:56:49.834Z,60.84
2023-03-25T04:59:18.183Z,61.58
2023-03-25T05:01:47.630Z,63.97
2023-03-25T05:04:17.640Z,62.55
2023-03-25T05:06:47.467Z,62.42
2023-03-25T05:09:17.119Z,63.59
2023-03-25T05:11:44.929Z,64.53
2023-03-25T05:14:14.043Z,64.21
2023-03-25T05:16:41.961Z,65.34
2023-03-25T05:19:11.145Z,63.70
2023-03-25T05:21:41.000Z,62.42
2023-03-25T05:24:10.283Z,60.36
2023-03-25T05:26:39.756Z,61.09
2023-03-25T05:29:09.384Z,63.05
2023-03-25T05:31:37.654Z,65.53
2023-03-25T05:34:06.746Z,66.58
2023-03-25T05:36:36.474Z,68.39
2023-03-25T05:39:05.547Z,63.77
2023-03-25T05:41:33.660Z,65.45
2023-03-25T05:44:01.955Z,67.31
2023-03-25T05:46:30.656Z,65.24
2023-03-25T05:49:00.895Z,63.14
2023-03-25T05:51:33.775Z,66.49
2023-03-25T05:54:03.309Z,63.86
2023-03-25T05:56:31.313Z,64.27
2023-03-25T05:58:59.255Z,63.23
2023-03-25T06:01:33.457Z,66.15
2023-03-25T06:04:03.159Z,63.46
2023-03-25T06:06:32.358Z,62.70
2023-03-25T06:09:00.332Z,64.81
2023-03-25T06:11:29.592Z,65.66
2023-03-25T06:13:57.559Z,61.97
2023-03-25T06:16:27.962Z,64.67
2023-03-25T06:18:59.485Z,63.21
2023-03-25T06:21:28.688Z,62.96
2023-03-25T06:23:58.342Z,63.33
2023-03-25T06:26:26.534Z,67.19
2023-03-25T06:28:55.878Z,64.04
2023-03-25T06:31:26.870Z,64.73
2023-03-25T06:33:56.403Z,63.30
2023-03-25T06:36:25.683Z,62.65
2023-03-25T06:38:54.166Z,62.47
2023-03-25T06:41:25.613Z,59.99
2023-03-25T06:43:54.790Z,61.02
2023-03-25T06:46:22.612Z,61.60
2023-03-25T06:48:50.447Z,61.60
2023-03-25T06:51:18.159Z,62.97
2023-03-25T06:53:45.885Z,60.71
2023-03-25T06:56:13.622Z,60.33
2023-03-25T06:58:41.925Z,60.67
2023-03-25T07:01:11.204Z,61.86
2023-03-25T07:03:39.488Z,61.42
2023-03-25T07:06:08.158Z,59.23
2023-03-25T07:08:35.989Z,61.06
2023-03-25T07:11:04.356Z,60.67
2023-03-25T07:13:32.276Z,58.60
2023-03-25T07:16:00.715Z,58.47
2023-03-25T07:18:30.034Z,57.40
2023-03-25T07:20:57.819Z,59.43
2023-03-25T07:23:26.021Z,62.02
2023-03-25T07:25:54.208Z,60.08
2023-03-25T07:28:21.965Z,57.25
2023-03-25T07:30:49.720Z,59.33
2023-03-25T07:33:17.427Z,59.35
2023-03-25T07:35:46.560Z,58.07
2023-03-25T07:38:14.297Z,56.52
2023-03-25T07:40:42.156Z,60.09
2023-03-25T07:43:09.867Z,58.45
2023-03-25T07:45:43.511Z,58.20
2023-03-25T07:48:14.683Z,57.88
2023-03-25T07:50:43.543Z,57.02
2023-03-25T07:53:12.628Z,57.50
2023-03-25T07:55:40.358Z,58.29
2023-03-25T07:58:08.095Z,59.26
2023-03-25T08:00:35.970Z,61.31
2023-03-25T08:03:03.961Z,60.51
2023-03-25T08:05:32.076Z,58.21
2023-03-25T08:08:00.931Z,57.44
2023-03-25T08:10:30.006Z,57.22
2023-03-25T08:12:57.759Z,58.69
2023-03-25T08:15:25.770Z,56.97
2023-03-25T08:17:54.870Z,58.75
2023-03-25T08:20:22.855Z,60.36
2023-03-25T08:22:51.299Z,62.92
2023-03-25T08:25:19.031Z,60.48
2023-03-25T08:27:48.145Z,59.51
2023-03-25T08:30:17.542Z,57.52
2023-03-25T08:32:46.317Z,57.73
2023-03-25T08:35:14.706Z,59.62
2023-03-25T08:37:42.462Z,62.64
2023-03-25T08:40:10.532Z,61.11
2023-03-25T08:42:38.827Z,60.97
2023-03-25T08:45:09.503Z,60.95
2023-03-25T08:47:37.349Z,61.00
2023-03-25T08:50:05.740Z,60.77
2023-03-25T08:52:33.437Z,60.97
2023-03-25T08:55:01.246Z,62.11
2023-03-25T08:57:28.959Z,61.55
2023-03-25T08:59:56.696Z,62.57
2023-03-25T09:02:26.403Z,61.38
2023-03-25T09:04:54.446Z,60.38
2023-03-25T09:07:23.276Z,60.54
2023-03-25T09:09:51.042Z,60.12
2023-03-25T09:12:18.832Z,61.44
2023-03-25T09:14:46.644Z,60.21
2023-03-25T09:17:14.393Z,60.90
2023-03-25T09:19:43.761Z,62.45
2023-03-25T09:22:11.487Z,59.49
2023-03-25T09:24:39.160Z,58.27
2023-03-25T09:27:07.024Z,57.96
2023-03-25T09:29:35.301Z,58.52
2023-03-25T09:32:03.712Z,59.94
2023-03-25T09:34:32.264Z,58.88
2023-03-25T09:37:03.137Z,59.70
2023-03-25T09:39:31.361Z,59.69
2023-03-25T09:42:20.540Z,57.63
2023-03-25T09:44:56.618Z,58.91
2023-03-25T09:47:26.056Z,59.27
2023-03-25T09:49:58.284Z,58.28
2023-03-25T09:52:35.775Z,58.76
2023-03-25T09:55:07.522Z,58.98
2023-03-25T09:57:43.720Z,59.66
2023-03-25T10:00:21.216Z,57.08
2023-03-25T10:02:58.036Z,57.86
2023-03-25T10:05:41.150Z,57.99
2023-03-25T10:08:20.372Z,58.77
2023-03-25T10:10:52.408Z,56.69
2023-03-25T10:13:26.744Z,58.20
2023-03-25T10:16:00.818Z,58.98
2023-03-25T10:18:54.119Z,57.79
2023-03-25T10:21:29.891Z,59.13
2023-03-25T10:24:07.868Z,58.07
2023-03-25T10:26:41.372Z,58.02
2023-03-25T10:29:14.498Z,53.97
2023-03-25T10:31:52.295Z,54.97
2023-03-25T10:34:21.553Z,56.67
2023-03-25T10:36:55.004Z,56.10
2023-03-25T10:39:33.878Z,55.18
2023-03-25T10:42:10.696Z,53.61
2023-03-25T10:44:38.555Z,53.00
2023-03-25T10:47:12.067Z,54.39
2023-03-25T10:49:42.689Z,52.95
2023-03-25T10:52:10.570Z,52.76
2023-03-25T10:54:45.142Z,53.87
2023-03-25T10:57:19.857Z,52.08
2023-03-25T10:59:58.104Z,53.75
2023-03-25T11:02:28.781Z,55.26
2023-03-25T11:04:59.960Z,52.40
2023-03-25T11:07:31.912Z,53.12
2023-03-25T11:10:17.415Z,53.65
2023-03-25T11:12:48.157Z,53.57
2023-03-25T11:15:19.591Z,51.84
2023-03-25T11:17:49.502Z,52.02
2023-03-25T11:20:23.121Z,52.26
2023-03-25T11:22:54.341Z,50.90
2023-03-25T11:25:27.875Z,51.79
2023-03-25T11:27:59.193Z,51.40
2023-03-25T11:30:27.519Z,50.96
2023-03-25T11:33:01.041Z,49.53
2023-03-25T11:35:32.126Z,49.42
2023-03-25T11:38:02.744Z,50.07
2023-03-25T11:40:32.946Z,50.13
2023-03-25T11:43:02.260Z,51.35
2023-03-25T11:45:35.788Z,50.47
2023-03-25T11:48:11.633Z,49.33
2023-03-25T11:50:39.683Z,48.52
2023-03-25T11:53:07.563Z,49.50
2023-03-25T11:55:47.742Z,49.27
2023-03-25T11:58:18.408Z,49.56
2023-03-25T12:00:48.975Z,49.40
2023-03-25T12:03:21.705Z,49.36
2023-03-25T12:06:01.318Z,50.42
2023-03-25T12:08:31.384Z,50.83
2023-03-25T12:11:06.916Z,49.82
2023-03-25T12:13:46.259Z,50.52
2023-03-25T12:16:26.084Z,50.46
2023-03-25T12:19:11.888Z,51.33
2023-03-25T12:21:51.161Z,52.50
2023-03-25T12:24:29.599Z,52.39
2023-03-25T12:27:11.028Z,51.23
2023-03-25T12:29:47.014Z,51.78
2023-03-25T12:32:27.876Z,52.79
2023-03-25T12:35:06.794Z,50.75
2023-03-25T12:37:41.994Z,49.98
2023-03-25T12:40:33.561Z,51.12
2023-03-25T12:43:06.411Z,52.04
2023-03-25T12:45:59.524Z,50.73
2023-03-25T12:48:43.353Z,51.23
2023-03-25T12:51:21.941Z,49.57
2023-03-25T12:54:04.048Z,50.42
2023-03-25T12:56:49.223Z,51.12
2023-03-25T12:59:49.701Z,50.82
2023-03-25T13:02:36.295Z,50.59
2023-03-25T13:05:18.921Z,50.96
2023-03-25T13:07:50.917Z,50.55
2023-03-25T13:10:19.996Z,50.89
2023-03-25T13:12:51.899Z,50.13
2023-03-25T13:15:27.239Z,49.90
2023-03-25T13:18:01.360Z,50.39
2023-03-25T13:20:32.991Z,50.09
2023-03-25T13:23:04.689Z,49.36
2023-03-25T13:25:42.863Z,49.29
2023-03-25T13:28:14.752Z,49.79
2023-03-25T13:30:46.539Z,48.54
2023-03-25T13:33:18.035Z,48.78
2023-03-25T13:35:48.946Z,48.23
2023-03-25T13:38:22.900Z,45.75
2023-03-25T13:40:59.317Z,44.46
2023-03-25T13:43:33.224Z,46.82
2023-03-25T13:46:06.166Z,45.31
2023-03-25T13:48:41.841Z,46.90
2023-03-25T13:51:10.595Z,44.74
2023-03-25T13:53:44.158Z,43.43
2023-03-25T13:56:57.299Z,43.53
2023-03-25T13:59:48.726Z,43.86
2023-03-25T14:02:39.595Z,44.38
2023-03-25T14:05:28.608Z,42.23
2023-03-25T14:08:38.114Z,42.70
2023-03-25T14:11:21.600Z,41.72
2023-03-25T14:13:52.394Z,42.07
2023-03-25T14:16:24.382Z,42.13
2023-03-25T14:18:56.067Z,43.42
2023-03-25T14:21:35.564Z,45.51
2023-03-25T14:24:06.905Z,44.21
2023-03-25T14:26:37.684Z,43.91
2023-03-25T14:29:17.456Z,44.79
2023-03-25T14:32:02.071Z,42.71
2023-03-25T14:34:30.037Z,43.13
2023-03-25T14:37:27.451Z,44.20
2023-03-25T14:39:59.332Z,44.57
2023-03-25T14:42:41.860Z,45.28
2023-03-25T14:45:38.381Z,45.04
2023-03-25T14:48:22.889Z,45.68
2023-03-25T14:51:10.810Z,44.00
2023-03-25T14:53:41.234Z,43.72
2023-03-25T14:56:19.047Z,42.96
2023-03-25T14:58:51.996Z,42.94
2023-03-25T15:01:21.895Z,44.32
2023-03-25T15:03:50.775Z,44.02
2023-03-25T15:06:29.850Z,43.60
2023-03-25T15:09:00.923Z,44.19
2023-03-25T15:11:34.512Z,42.11
2023-03-25T15:14:06.947Z,42.40
2023-03-25T15:16:37.381Z,43.61
2023-03-25T15:19:11.768Z,44.32
2023-03-25T15:22:11.243Z,44.57
2023-03-25T15:24:41.800Z,44.52
2023-03-25T15:27:21.311Z,43.84
2023-03-25T15:30:01.406Z,44.36
2023-03-25T15:32:44.785Z,43.81
2023-03-25T15:35:43.276Z,44.33
2023-03-25T15:38:29.075Z,45.13
2023-03-25T15:41:19.572Z,44.43
2023-03-25T15:44:18.299Z,42.96
2023-03-25T15:47:07.378Z,42.23
2023-03-25T15:49:52.420Z,45.33
2023-03-25T15:52:42.209Z,45.18
2023-03-25T15:55:14.788Z,43.47
2023-03-25T15:57:48.556Z,45.04
2023-03-25T16:00:23.496Z,46.30
2023-03-25T16:02:56.342Z,45.54
2023-03-25T16:05:24.487Z,45.58
2023-03-25T16:07:52.838Z,46.26
2023-03-25T16:10:28.049Z,47.53
2023-03-25T16:12:57.191Z,46.04
2023-03-25T16:15:28.046Z,45.01
2023-03-25T16:17:56.438Z,47.42
2023-03-25T16:20:26.841Z,45.95
2023-03-25T16:22:56.361Z,46.30
2023-03-25T16:25:28.935Z,45.61
2023-03-25T16:27:58.855Z,47.28
2023-03-25T16:30:30.538Z,47.86
2023-03-25T16:33:12.738Z,46.52
2023-03-25T16:35:42.975Z,46.30
2023-03-25T16:38:17.336Z,46.81
2023-03-25T16:40:46.962Z,46.38
2023-03-25T16:43:20.549Z,46.41
2023-03-25T16:45:50.481Z,46.73
2023-03-25T16:48:20.507Z,46.73
2023-03-25T16:50:48.342Z,46.58
2023-03-25T16:53:18.826Z,46.14
2023-03-25T16:55:48.889Z,46.23
2023-03-25T16:58:21.067Z,47.64
2023-03-25T17:00:51.708Z,47.82
2023-03-25T17:03:38.753Z,46.92
2023-03-25T17:06:19.462Z,47.48
2023-03-25T17:08:50.706Z,50.44
2023-03-25T17:11:18.595Z,47.91
2023-03-25T17:13:51.880Z,46.64
2023-03-25T17:16:20.219Z,47.19
2023-03-25T17:18:49.203Z,47.17
2023-03-25T17:21:26.676Z,46.61
2023-03-25T17:23:55.980Z,47.62
2023-03-25T17:26:26.152Z,47.26
2023-03-25T17:29:06.212Z,47.87
2023-03-25T17:31:36.458Z,50.05
2023-03-25T17:34:07.348Z,49.47
2023-03-25T17:36:37.828Z,49.46
2023-03-25T17:39:12.292Z,49.49
2023-03-25T17:41:41.407Z,49.45
2023-03-25T17:44:15.993Z,49.47
2023-03-25T17:46:44.190Z,49.48
2023-03-25T17:49:16.680Z,49.20
2023-03-25T17:51:45.149Z,49.07
2023-03-25T17:54:12.972Z,49.92
2023-03-25T17:56:41.040Z,49.75
2023-03-25T17:59:16.830Z,49.41
2023-03-25T18:01:45.225Z,48.73
2023-03-25T18:04:15.104Z,50.22
2023-03-25T18:06:43.877Z,52.04
2023-03-25T18:09:16.840Z,53.32
2023-03-25T18:11:45.062Z,53.99
2023-03-25T18:14:14.271Z,53.69
2023-03-25T18:16:42.379Z,53.16
2023-03-25T18:19:12.403Z,54.81
2023-03-25T18:21:40.162Z,54.49
2023-03-25T18:24:08.024Z,53.30
2023-03-25T18:26:36.136Z,53.96
2023-03-25T18:29:05.248Z,54.20
2023-03-25T18:31:34.337Z,54.40
2023-03-25T18:34:02.093Z,54.96
2023-03-25T18:36:29.893Z,54.63
2023-03-25T18:38:57.802Z,54.63
2023-03-25T18:41:25.575Z,55.04
2023-03-25T18:43:53.280Z,55.22
2023-03-25T18:46:21.498Z,55.13
2023-03-25T18:48:50.672Z,55.33
2023-03-25T18:51:18.425Z,56.78
2023-03-25T18:53:47.288Z,57.60
2023-03-25T18:56:15.059Z,58.42
2023-03-25T18:58:42.764Z,61.34
2023-03-25T19:01:15.548Z,61.35
2023-03-25T19:03:43.490Z,62.14
2023-03-25T19:06:14.674Z,61.51
2023-03-25T19:08:43.390Z,64.19
2023-03-25T19:11:20.754Z,61.97
2023-03-25T19:13:49.168Z,60.66
2023-03-25T19:16:17.065Z,59.98
2023-03-25T19:18:44.856Z,60.84
2023-03-25T19:21:18.274Z,60.14
2023-03-25T19:23:46.000Z,60.25
2023-03-25T19:26:14.176Z,60.22
2023-03-25T19:28:42.222Z,60.47
2023-03-25T19:31:13.263Z,60.30
2023-03-25T19:33:41.224Z,60.33
2023-03-25T19:36:14.763Z,60.67
2023-03-25T19:38:44.015Z,62.02
2023-03-25T19:41:15.438Z,62.10
2023-03-25T19:43:43.378Z,62.62
2023-03-25T19:46:11.437Z,63.75
2023-03-25T19:48:39.259Z,64.04
2023-03-25T19:51:07.314Z,63.69
2023-03-25T19:53:35.366Z,63.01
2023-03-25T19:56:06.236Z,63.20
2023-03-25T19:58:35.028Z,64.08
2023-03-25T20:01:02.873Z,63.70
2023-03-25T20:03:32.773Z,62.89
2023-03-25T20:06:02.455Z,63.69
2023-03-25T20:08:31.984Z,63.35
2023-03-25T20:11:01.175Z,63.72
2023-03-25T20:13:30.520Z,63.96
2023-03-25T20:15:58.284Z,63.34
2023-03-25T20:18:26.050Z,63.99
2023-03-25T20:20:53.789Z,64.63
2023-03-25T20:23:21.631Z,64.25
2023-03-25T20:25:52.655Z,64.41
2023-03-25T20:28:20.607Z,63.40
2023-03-25T20:30:49.699Z,61.75
2023-03-25T20:33:17.721Z,63.27
2023-03-25T20:35:46.039Z,61.32
2023-03-25T20:38:14.258Z,63.14
2023-03-25T20:40:45.024Z,62.50
2023-03-25T20:43:14.547Z,61.45
2023-03-25T20:45:43.132Z,63.71
2023-03-25T20:48:12.705Z,64.44
2023-03-25T20:50:40.640Z,62.09
2023-03-25T20:53:08.955Z,62.93
2023-03-25T20:55:37.326Z,63.36
2023-03-25T20:58:05.752Z,61.61
2023-03-25T21:00:34.108Z,60.28
2023-03-25T21:03:03.326Z,61.52
2023-03-25T21:05:33.001Z,61.35
2023-03-25T21:08:00.700Z,64.41
2023-03-25T21:10:28.526Z,64.95
2023-03-25T21:12:56.232Z,62.85
2023-03-25T21:15:23.947Z,63.81
2023-03-25T21:17:51.773Z,64.93
2023-03-25T21:20:21.849Z,63.85
2023-03-25T21:22:51.165Z,62.43
2023-03-25T21:25:19.079Z,61.80
2023-03-25T21:27:46.939Z,63.41
2023-03-25T21:30:15.400Z,63.65
2023-03-25T21:32:43.433Z,63.60
2023-03-25T21:35:11.435Z,63.50
2023-03-25T21:37:40.096Z,64.58
2023-03-25T21:40:14.565Z,64.01
2023-03-25T21:42:43.289Z,63.29
2023-03-25T21:45:13.488Z,63.82
2023-03-25T21:47:41.697Z,63.00
2023-03-25T21:50:11.609Z,62.23
2023-03-25T21:52:43.033Z,62.12
2023-03-25T21:55:12.578Z,63.66
2023-03-25T21:57:44.313Z,63.40
2023-03-25T22:00:16.254Z,64.29
2023-03-25T22:02:44.734Z,65.03
2023-03-25T22:05:13.434Z,64.18
2023-03-25T22:07:41.485Z,65.13
2023-03-25T22:10:11.257Z,66.33
2023-03-25T22:12:40.719Z,64.64
2023-03-25T22:15:10.702Z,65.46
2023-03-25T22:17:38.533Z,67.91
2023-03-25T22:20:07.644Z,69.35
2023-03-25T22:22:35.359Z,68.73
2023-03-25T22:25:03.997Z,66.86
2023-03-25T22:27:31.683Z,68.73
2023-03-25T22:30:01.383Z,67.95
2023-03-25T22:32:29.396Z,66.34
2023-03-25T22:34:57.267Z,66.03
2023-03-25T22:37:25.105Z,65.96
2023-03-25T22:39:52.812Z,67.08
2023-03-25T22:42:20.645Z,67.54
2023-03-25T22:44:48.422Z,69.79
2023-03-25T22:47:17.541Z,68.63
2023-03-25T22:49:45.779Z,68.35
2023-03-25T22:52:13.552Z,69.61
2023-03-25T22:54:41.293Z,69.56
2023-03-25T22:57:09.080Z,69.35
2023-03-25T22:59:38.969Z,70.02
2023-03-25T23:02:07.686Z,69.66
2023-03-25T23:04:37.948Z,71.14
2023-03-25T23:07:08.468Z,69.50
2023-03-25T23:09:43.950Z,69.32
2023-03-25T23:12:13.817Z,72.45
2023-03-25T23:14:43.300Z,72.81
2023-03-25T23:17:11.942Z,72.71
2023-03-25T23:19:41.494Z,71.47
2023-03-25T23:22:09.487Z,72.97
2023-03-25T23:24:38.044Z,71.18
2023-03-25T23:27:06.024Z,72.05
2023-03-25T23:29:35.862Z,71.26
2023-03-25T23:32:04.928Z,73.40
2023-03-25T23:34:33.826Z,73.29
2023-03-25T23:37:03.309Z,71.21
2023-03-25T23:39:31.631Z,76.96
2023-03-25T23:41:59.469Z,75.93
2023-03-25T23:44:27.427Z,73.56
2023-03-25T23:46:55.749Z,74.06
2023-03-25T23:49:24.121Z,77.13
2023-03-25T23:51:52.030Z,76.04
2023-03-25T23:54:21.174Z,77.00
2023-03-25T23:56:49.040Z,74.24
2023-03-25T23:59:16.892Z,75.05
